OMAA/AUH METAR and TAF weather

Enter ICAO airport designator
Station Type Date Time Source
OMAA METAR 2023/01/30 11:00 UTC NOAA

OMAA 301100Z 02006KT 310V050 CAVOK 22/14 Q1016 NOSIG


Station Type Date Time Source
OMAA Decoded METAR 2023/01/30 11:00 UTC NOAA

Abu Dhabi International Airport, United Arab Emirates (OMAA) 24-26N 054-39E 27M
Jan 30, 2023 - 06:00 AM EST / 2023.01.30 1100 UTC
Wind: from the NNE (020 degrees) at 7 MPH (6 KT) (direction variable):0
Visibility: greater than 7 mile(s):0
Temperature: 71 F (22 C)
Dew Point: 57 F (14 C)
Relative Humidity: 60%
Pressure (altimeter): 30.00 in. Hg (1016 hPa)
ob: OMAA 301100Z 02006KT 310V050 CAVOK 22/14 Q1016 NOSIG
cycle: 11

Station Type Date Time Source
OMAA TAF 2023/01/30 12:06 UTC NOAA

TAF TAF OMAA 301100Z 3012/3118 35009KT 8000 NSC
BECMG 3018/3020 12005KT PROB40 3023/3105 3000 HZ BKN010 PROB30 3101/3104 0500 FG VV002
BECMG 3114/3116 03007KT

Example: see airport list